Time;durP1;ratioP1;P1;durP2;ratioP2;P2;SDS_P1;SDS_P2;PMS_P1;PMS_P2;Temp;Humidity;BMP_temperature;BMP_pressure;BME280_temperature;BME280_humidity;BME280_pressure;Samples;Min_cycle;Max_cycle;Signal;HPM_P1;HPM_P2
2022/10/25 00:01:48;;;;;;;;;;;18.60;67.60;;;;;;5109915;28;20007;-66
2022/10/25 00:04:14;;;;;;;;;;;18.60;67.70;;;;;;5108756;28;19916;-67
2022/10/25 00:06:39;;;;;;;;;;;18.60;67.70;;;;;;5108230;28;20312;-67
2022/10/25 00:09:05;;;;;;;;;;;18.60;67.70;;;;;;5109522;28;19927;-67
2022/10/25 00:11:31;;;;;;;;;;;18.60;67.70;;;;;;5108060;28;19924;-67
2022/10/25 00:13:58;;;;;;;;;;;18.60;67.70;;;;;;5108126;28;20310;-66
2022/10/25 00:16:26;;;;;;;;;;;18.60;67.70;;;;;;5108372;28;19924;-66
2022/10/25 00:18:52;;;;;;;;;;;18.60;67.70;;;;;;5109251;28;19920;-67
2022/10/25 00:21:18;;;;;;;;;;;18.60;67.80;;;;;;5107951;28;19927;-66
2022/10/25 00:23:43;;;;;;;;;;;18.60;67.70;;;;;;5107950;28;20015;-66
2022/10/25 00:26:10;;;;;;;;;;;18.60;67.80;;;;;;5109284;28;19966;-67
2022/10/25 00:28:36;;;;;;;;;;;18.50;67.80;;;;;;5108939;28;19920;-66
2022/10/25 00:31:04;;;;;;;;;;;18.50;67.80;;;;;;5110721;28;20332;-67
2022/10/25 00:33:30;;;;;;;;;;;18.50;67.80;;;;;;5129444;28;19919;-67
2022/10/25 00:35:55;;;;;;;;;;;18.60;67.80;;;;;;5111103;28;20272;-67
2022/10/25 00:38:21;;;;;;;;;;;18.50;67.80;;;;;;5129358;28;19927;-67
2022/10/25 00:40:47;;;;;;;;;;;18.60;67.90;;;;;;5145641;27;19930;-66
2022/10/25 00:43:32;;;;;;;;;;;18.50;67.90;;;;;;5098278;28;20394;-68
2022/10/25 00:45:59;;;;;;;;;;;18.50;67.90;;;;;;5115426;28;19919;-67
2022/10/25 00:48:25;;;;;;;;;;;18.50;67.90;;;;;;5131409;27;19920;-67
2022/10/25 00:50:52;;;;;;;;;;;18.50;67.90;;;;;;5115447;28;19935;-67
2022/10/25 00:53:19;;;;;;;;;;;18.50;67.90;;;;;;5131265;27;19920;-66
2022/10/25 00:55:47;;;;;;;;;;;18.50;67.90;;;;;;5097406;28;19919;-67
2022/10/25 00:58:16;;;;;;;;;;;18.40;67.90;;;;;;5097357;28;19942;-66
2022/10/25 01:00:44;;;;;;;;;;;18.50;67.90;;;;;;5097095;28;19927;-66
2022/10/25 01:03:09;;;;;;;;;;;18.40;67.90;;;;;;5115260;28;19966;-67
2022/10/25 01:05:36;;;;;;;;;;;18.40;67.90;;;;;;5097581;28;19974;-66
2022/10/25 01:08:02;;;;;;;;;;;18.40;67.90;;;;;;5096889;28;19923;-67
2022/10/25 01:10:28;;;;;;;;;;;18.40;67.90;;;;;;5096799;28;19926;-67
2022/10/25 01:12:53;;;;;;;;;;;18.40;67.90;;;;;;5096916;28;19919;-67
2022/10/25 01:15:21;;;;;;;;;;;18.40;67.90;;;;;;5115285;28;20006;-66
2022/10/25 01:17:52;;;;;;;;;;;18.40;68.00;;;;;;5096803;28;19942;-67
2022/10/25 01:20:37;;;;;;;;;;;18.50;68.00;;;;;;5096656;28;19922;-67
2022/10/25 01:26:04;;;;;;;;;;;18.40;68.00;;;;;;5089953;28;19941;-67
2022/10/25 01:28:49;;;;;;;;;;;18.40;68.00;;;;;;5088544;28;19921;-66
2022/10/25 01:34:20;;;;;;;;;;;18.40;68.10;;;;;;5110262;27;19912;-66
2022/10/25 01:37:06;;;;;;;;;;;18.40;68.00;;;;;;5108954;28;19920;-67
2022/10/25 01:39:33;;;;;;;;;;;18.30;68.00;;;;;;5108521;28;19931;-67
2022/10/25 01:44:46;;;;;;;;;;;18.40;68.10;;;;;;5089826;28;20078;-67
2022/10/25 01:47:14;;;;;;;;;;;18.40;68.10;;;;;;5089881;28;19920;-66
2022/10/25 01:50:00;;;;;;;;;;;18.40;68.10;;;;;;5088448;28;19920;-67
2022/10/25 01:52:26;;;;;;;;;;;18.40;68.10;;;;;;5088250;28;19970;-67
2022/10/25 01:54:51;;;;;;;;;;;18.30;68.10;;;;;;5088408;28;20383;-66
2022/10/25 02:00:03;;;;;;;;;;;18.30;68.30;;;;;;5089239;28;19912;-67
2022/10/25 02:08:14;;;;;;;;;;;18.50;68.00;;;;;;5110297;27;19908;-67
2022/10/25 02:10:41;;;;;;;;;;;18.70;68.10;;;;;;5108613;28;19916;-66
2022/10/25 02:13:14;;;;;;;;;;;18.70;68.00;;;;;;5108815;28;19934;-67
2022/10/25 02:15:43;;;;;;;;;;;18.70;68.00;;;;;;5109019;28;19924;-67
2022/10/25 02:18:14;;;;;;;;;;;18.80;68.00;;;;;;5108802;28;19920;-66
2022/10/25 02:20:40;;;;;;;;;;;18.90;67.70;;;;;;5109135;28;19924;-67
2022/10/25 02:23:06;;;;;;;;;;;19.10;67.70;;;;;;5108957;28;19924;-67
2022/10/25 02:25:33;;;;;;;;;;;19.20;67.40;;;;;;5108515;28;19943;-67
2022/10/25 02:28:00;;;;;;;;;;;19.30;67.30;;;;;;5108593;28;19927;-67
2022/10/25 02:30:26;;;;;;;;;;;19.40;67.10;;;;;;5108291;28;19970;-67
2022/10/25 02:32:52;;;;;;;;;;;19.50;66.90;;;;;;5108468;28;19959;-67
2022/10/25 02:35:18;;;;;;;;;;;19.60;66.70;;;;;;5108724;28;19934;-69
2022/10/25 02:37:43;;;;;;;;;;;19.60;66.50;;;;;;5108386;28;20339;-67
2022/10/25 02:40:09;;;;;;;;;;;19.70;66.30;;;;;;5108304;28;19920;-67
2022/10/25 02:42:35;;;;;;;;;;;19.80;66.20;;;;;;5108608;28;19920;-67
2022/10/25 02:45:00;;;;;;;;;;;19.90;66.10;;;;;;5108227;28;20287;-67
2022/10/25 02:47:26;;;;;;;;;;;20.00;65.80;;;;;;5108161;28;19928;-67
2022/10/25 02:49:51;;;;;;;;;;;20.10;65.60;;;;;;5108677;28;19920;-67
2022/10/25 02:52:17;;;;;;;;;;;20.10;65.50;;;;;;5142425;27;19920;-67
2022/10/25 02:54:42;;;;;;;;;;;20.20;65.30;;;;;;5108373;28;19920;-67
2022/10/25 02:57:08;;;;;;;;;;;20.30;65.20;;;;;;5109399;28;19927;-69
2022/10/25 02:59:33;;;;;;;;;;;20.30;65.10;;;;;;5108146;28;20275;-69
2022/10/25 03:01:59;;;;;;;;;;;20.30;64.80;;;;;;5109107;28;20089;-67
2022/10/25 03:04:24;;;;;;;;;;;20.40;64.70;;;;;;5107906;28;19927;-67
2022/10/25 03:06:50;;;;;;;;;;;20.30;64.60;;;;;;5107469;28;19924;-67
2022/10/25 03:09:16;;;;;;;;;;;20.30;64.40;;;;;;5141988;27;19931;-67
2022/10/25 03:11:41;;;;;;;;;;;20.50;64.40;;;;;;5108989;28;19920;-67
2022/10/25 03:14:07;;;;;;;;;;;20.50;64.30;;;;;;5142309;27;20360;-67
2022/10/25 03:16:32;;;;;;;;;;;20.50;64.30;;;;;;5108830;28;19920;-67
2022/10/25 03:18:58;;;;;;;;;;;20.50;64.20;;;;;;5096841;28;19935;-69
2022/10/25 03:21:24;;;;;;;;;;;20.50;64.10;;;;;;5094005;28;19921;-67
2022/10/25 03:23:49;;;;;;;;;;;20.50;64.10;;;;;;5128275;27;20015;-67
2022/10/25 03:26:15;;;;;;;;;;;20.50;64.10;;;;;;5094098;28;20299;-67
2022/10/25 03:28:40;;;;;;;;;;;20.60;64.10;;;;;;5095097;28;20391;-67
2022/10/25 03:31:10;;;;;;;;;;;20.50;63.90;;;;;;5093770;28;19920;-67
2022/10/25 03:33:35;;;;;;;;;;;20.60;64.00;;;;;;5095131;28;20351;-67
2022/10/25 03:36:01;;;;;;;;;;;20.60;63.90;;;;;;5095294;28;20007;-67
2022/10/25 03:38:26;;;;;;;;;;;20.60;63.80;;;;;;5095197;28;19923;-67
2022/10/25 03:40:52;;;;;;;;;;;20.60;63.90;;;;;;5094207;28;20119;-67
2022/10/25 03:43:17;;;;;;;;;;;20.60;63.90;;;;;;5093562;28;20379;-68
2022/10/25 03:45:43;;;;;;;;;;;20.60;63.80;;;;;;5093613;28;19916;-67
2022/10/25 03:48:09;;;;;;;;;;;20.60;63.70;;;;;;5093394;28;19920;-67
2022/10/25 03:50:35;;;;;;;;;;;20.60;63.70;;;;;;5095059;28;19920;-67
2022/10/25 03:53:00;;;;;;;;;;;20.70;63.80;;;;;;5094823;28;19922;-67
2022/10/25 03:55:26;;;;;;;;;;;20.70;63.70;;;;;;5093592;28;20359;-67
2022/10/25 03:57:51;;;;;;;;;;;20.70;63.70;;;;;;5093339;28;20383;-67
2022/10/25 04:00:17;;;;;;;;;;;20.70;63.70;;;;;;5093093;28;19920;-67
2022/10/25 04:02:42;;;;;;;;;;;20.60;63.60;;;;;;5093182;28;19920;-67
2022/10/25 04:05:08;;;;;;;;;;;20.70;63.60;;;;;;5094363;28;19927;-67
2022/10/25 04:07:34;;;;;;;;;;;20.70;63.60;;;;;;5093926;28;20383;-67
2022/10/25 04:09:59;;;;;;;;;;;20.70;63.60;;;;;;5094210;28;19921;-67
2022/10/25 04:12:25;;;;;;;;;;;20.70;63.50;;;;;;5092973;28;19946;-67
2022/10/25 04:14:50;;;;;;;;;;;20.70;63.50;;;;;;5094198;28;19920;-67
2022/10/25 04:17:16;;;;;;;;;;;20.70;63.40;;;;;;5093499;28;20291;-68
2022/10/25 04:19:41;;;;;;;;;;;20.70;63.40;;;;;;5092716;28;19916;-67
2022/10/25 04:22:11;;;;;;;;;;;20.80;63.50;;;;;;5094192;28;20351;-67
2022/10/25 04:24:36;;;;;;;;;;;20.80;63.40;;;;;;5094200;28;19924;-67
2022/10/25 04:27:02;;;;;;;;;;;20.70;63.40;;;;;;5092992;28;20411;-67
2022/10/25 04:29:27;;;;;;;;;;;20.80;63.40;;;;;;5093474;28;19920;-67
2022/10/25 04:31:53;;;;;;;;;;;20.80;63.30;;;;;;5127084;27;19958;-67
2022/10/25 04:34:18;;;;;;;;;;;20.80;63.30;;;;;;5126690;27;20351;-67
2022/10/25 04:36:44;;;;;;;;;;;20.80;63.30;;;;;;5092762;28;19920;-67
2022/10/25 04:39:09;;;;;;;;;;;20.80;63.20;;;;;;5093904;28;19920;-67
2022/10/25 04:41:35;;;;;;;;;;;20.90;63.30;;;;;;5092722;28;19946;-67
2022/10/25 04:44:00;;;;;;;;;;;20.90;63.30;;;;;;5092702;28;19920;-67
2022/10/25 04:46:26;;;;;;;;;;;20.80;63.20;;;;;;5126529;27;20413;-67
2022/10/25 04:48:52;;;;;;;;;;;20.90;63.20;;;;;;5093494;28;19963;-67
2022/10/25 04:51:17;;;;;;;;;;;20.90;63.20;;;;;;5092146;28;20001;-67
2022/10/25 04:53:43;;;;;;;;;;;20.90;63.10;;;;;;5092254;28;19946;-67
2022/10/25 04:56:10;;;;;;;;;;;20.90;63.10;;;;;;5092121;28;20241;-67
2022/10/25 04:58:36;;;;;;;;;;;20.90;63.10;;;;;;5093401;28;19924;-67
2022/10/25 05:01:04;;;;;;;;;;;20.90;63.10;;;;;;5091970;28;20002;-67
2022/10/25 05:03:30;;;;;;;;;;;20.90;63.10;;;;;;5092301;28;19927;-67
2022/10/25 05:06:03;;;;;;;;;;;21.00;63.10;;;;;;5091832;28;20314;-69
2022/10/25 05:08:29;;;;;;;;;;;20.90;63.00;;;;;;5093069;28;19920;-67
2022/10/25 05:10:54;;;;;;;;;;;21.00;63.00;;;;;;5091773;28;19920;-67
2022/10/25 05:13:20;;;;;;;;;;;21.00;62.90;;;;;;5091506;28;19968;-67
2022/10/25 05:15:54;;;;;;;;;;;21.00;62.90;;;;;;5092053;28;19993;-67
2022/10/25 05:18:19;;;;;;;;;;;21.00;62.90;;;;;;5091676;28;20368;-67
2022/10/25 05:20:53;;;;;;;;;;;21.00;62.80;;;;;;5092879;28;19930;-67
2022/10/25 05:23:19;;;;;;;;;;;21.00;62.80;;;;;;5093104;28;19927;-68
2022/10/25 05:25:44;;;;;;;;;;;21.10;62.90;;;;;;5091825;28;19920;-68
2022/10/25 05:28:10;;;;;;;;;;;21.10;62.90;;;;;;5093092;28;20371;-67
2022/10/25 05:30:38;;;;;;;;;;;21.00;62.80;;;;;;5091478;28;19931;-69
2022/10/25 05:33:04;;;;;;;;;;;21.10;62.80;;;;;;5092636;28;19946;-67
2022/10/25 05:35:29;;;;;;;;;;;21.10;62.80;;;;;;5091415;28;19920;-67
2022/10/25 05:37:55;;;;;;;;;;;21.10;62.70;;;;;;5091739;28;19924;-67
2022/10/25 05:40:20;;;;;;;;;;;21.10;62.70;;;;;;5092475;28;20295;-68
2022/10/25 05:42:46;;;;;;;;;;;21.10;62.60;;;;;;5089570;28;19931;-67
2022/10/25 05:45:11;;;;;;;;;;;21.10;62.60;;;;;;5087337;28;19928;-68
2022/10/25 05:47:37;;;;;;;;;;;21.10;62.60;;;;;;5086954;28;19935;-67
2022/10/25 05:50:02;;;;;;;;;;;21.10;62.70;;;;;;5085097;28;19928;-68
2022/10/25 05:52:28;;;;;;;;;;;21.20;61.90;;;;;;5085717;28;19943;-66
2022/10/25 05:54:54;;;;;;;;;;;21.20;61.40;;;;;;5086362;28;20023;-66
2022/10/25 05:57:19;;;;;;;;;;;21.20;60.90;;;;;;5086243;28;19992;-66
2022/10/25 05:59:45;;;;;;;;;;;21.20;60.50;;;;;;5087010;28;19924;-66
2022/10/25 06:02:10;;;;;;;;;;;21.20;60.20;;;;;;5085555;28;19987;-67
2022/10/25 06:04:36;;;;;;;;;;;21.20;60.10;;;;;;5086910;28;20426;-66
2022/10/25 06:07:01;;;;;;;;;;;21.20;60.40;;;;;;5082872;28;20462;-67
2022/10/25 06:09:27;;;;;;;;;;;21.20;60.20;;;;;;5084004;28;19920;-66
2022/10/25 06:11:52;;;;;;;;;;;21.30;60.90;;;;;;5080511;28;19920;-65
2022/10/25 06:14:18;;;;;;;;;;;21.20;60.30;;;;;;5065258;28;19924;-73
2022/10/25 06:16:43;;;;;;;;;;;21.30;60.30;;;;;;5073861;28;19932;-72
2022/10/25 06:19:09;;;;;;;;;;;21.20;60.10;;;;;;5070359;28;19927;-65
2022/10/25 06:21:34;;;;;;;;;;;21.30;60.10;;;;;;5079141;28;19924;-66
2022/10/25 06:24:00;;;;;;;;;;;21.30;60.50;;;;;;5065058;28;20856;-65
2022/10/25 06:26:27;;;;;;;;;;;21.40;60.20;;;;;;5071022;28;19933;-74
2022/10/25 06:28:54;;;;;;;;;;;21.40;59.90;;;;;;5067551;28;19981;-65
2022/10/25 06:31:19;;;;;;;;;;;21.40;59.60;;;;;;5071638;28;19924;-66
2022/10/25 06:33:45;;;;;;;;;;;21.40;59.60;;;;;;5099747;28;19924;-67
2022/10/25 06:36:13;;;;;;;;;;;21.40;60.00;;;;;;5068343;28;19978;-67
2022/10/25 06:38:39;;;;;;;;;;;21.40;60.30;;;;;;5067219;28;19978;-67
2022/10/25 06:41:06;;;;;;;;;;;21.40;60.40;;;;;;5068893;28;19924;-67
2022/10/25 06:43:33;;;;;;;;;;;21.50;60.60;;;;;;5068281;28;20651;-66
2022/10/25 06:46:07;;;;;;;;;;;21.40;60.60;;;;;;5076195;28;19931;-67
2022/10/25 06:48:32;;;;;;;;;;;21.40;60.80;;;;;;5068703;28;20459;-65
2022/10/25 06:51:01;;;;;;;;;;;21.40;60.80;;;;;;5071974;28;20006;-63
2022/10/25 06:53:26;;;;;;;;;;;21.40;61.00;;;;;;5072199;28;19955;-63
2022/10/25 06:55:52;;;;;;;;;;;21.50;61.00;;;;;;5072775;28;20020;-61
2022/10/25 06:58:17;;;;;;;;;;;21.50;61.60;;;;;;5072925;28;19928;-64
2022/10/25 07:00:43;;;;;;;;;;;21.50;61.10;;;;;;5075882;28;20524;-65
2022/10/25 07:03:08;;;;;;;;;;;21.50;61.50;;;;;;5075854;28;20023;-66
2022/10/25 07:05:34;;;;;;;;;;;21.50;61.70;;;;;;5077127;28;20568;-66
2022/10/25 07:07:59;;;;;;;;;;;21.50;61.60;;;;;;5110384;27;19928;-66
2022/10/25 07:10:25;;;;;;;;;;;21.60;61.90;;;;;;5075635;28;20023;-65
2022/10/25 07:12:50;;;;;;;;;;;21.60;62.00;;;;;;5107131;27;21849;-65
2022/10/25 07:15:16;;;;;;;;;;;21.60;62.00;;;;;;5073804;28;20361;-66
2022/10/25 07:17:42;;;;;;;;;;;21.60;62.10;;;;;;5073394;28;20011;-65
2022/10/25 07:20:07;;;;;;;;;;;21.60;62.10;;;;;;5071104;28;19931;-65
2022/10/25 07:22:33;;;;;;;;;;;21.60;62.20;;;;;;5075225;28;20538;-66
2022/10/25 07:24:58;;;;;;;;;;;21.60;61.90;;;;;;5074599;28;19930;-66
2022/10/25 07:27:24;;;;;;;;;;;21.60;61.90;;;;;;5074103;28;19981;-66
2022/10/25 07:29:49;;;;;;;;;;;21.60;61.70;;;;;;5077284;28;20403;-65
2022/10/25 07:32:15;;;;;;;;;;;21.60;61.40;;;;;;5073627;28;19950;-67
2022/10/25 07:34:40;;;;;;;;;;;21.60;61.40;;;;;;5075163;28;19930;-66
2022/10/25 07:37:06;;;;;;;;;;;21.60;61.50;;;;;;5074864;28;19928;-66
2022/10/25 07:39:31;;;;;;;;;;;21.60;61.30;;;;;;5073270;28;19959;-66
2022/10/25 07:41:57;;;;;;;;;;;21.60;61.20;;;;;;5074163;28;20291;-69
2022/10/25 07:44:22;;;;;;;;;;;21.60;61.20;;;;;;5075048;28;19925;-66
2022/10/25 07:46:49;;;;;;;;;;;21.60;61.30;;;;;;5105370;27;19924;-66
2022/10/25 07:49:14;;;;;;;;;;;21.60;61.30;;;;;;5072010;28;20029;-66
2022/10/25 07:51:40;;;;;;;;;;;21.60;61.40;;;;;;5071488;28;20403;-65
2022/10/25 07:54:06;;;;;;;;;;;21.60;61.40;;;;;;5074476;28;19928;-66
2022/10/25 07:56:31;;;;;;;;;;;21.60;61.50;;;;;;5074619;28;20296;-67
2022/10/25 07:58:57;;;;;;;;;;;21.60;61.70;;;;;;5092129;28;19924;-66
2022/10/25 08:01:24;;;;;;;;;;;21.60;61.90;;;;;;5071828;28;20352;-67
2022/10/25 08:03:50;;;;;;;;;;;21.60;62.20;;;;;;5075543;28;19924;-64
2022/10/25 08:06:16;;;;;;;;;;;21.60;62.40;;;;;;5075311;28;19932;-64
2022/10/25 08:08:41;;;;;;;;;;;21.70;62.00;;;;;;5071036;28;19928;-64
2022/10/25 08:11:07;;;;;;;;;;;21.70;61.90;;;;;;5073207;28;19920;-66
2022/10/25 08:13:34;;;;;;;;;;;21.70;61.90;;;;;;5075319;28;19936;-64
2022/10/25 08:16:00;;;;;;;;;;;21.70;61.90;;;;;;5075751;28;20078;-66
2022/10/25 08:18:25;;;;;;;;;;;21.60;62.00;;;;;;5075282;28;20019;-69
2022/10/25 08:20:51;;;;;;;;;;;21.60;62.10;;;;;;5060952;28;20508;-68
2022/10/25 08:23:16;;;;;;;;;;;21.70;62.00;;;;;;5076431;28;19947;-70
2022/10/25 08:25:42;;;;;;;;;;;21.60;61.90;;;;;;5076124;28;19924;-66
2022/10/25 08:28:07;;;;;;;;;;;21.60;61.90;;;;;;5076307;28;19925;-64
2022/10/25 08:30:33;;;;;;;;;;;21.60;61.90;;;;;;5081188;28;19927;-64
2022/10/25 08:32:58;;;;;;;;;;;21.70;62.80;;;;;;5073888;28;19921;-65
2022/10/25 08:35:24;;;;;;;;;;;21.60;62.90;;;;;;5109131;27;20003;-65
2022/10/25 08:37:49;;;;;;;;;;;21.60;62.20;;;;;;5075092;28;20546;-67
2022/10/25 08:40:17;;;;;;;;;;;21.60;62.30;;;;;;5075421;28;20395;-65
2022/10/25 08:42:56;;;;;;;;;;;21.60;62.10;;;;;;5072782;28;19978;-64
2022/10/25 08:45:25;;;;;;;;;;;21.60;61.90;;;;;;5073067;28;19994;-65
2022/10/25 08:47:51;;;;;;;;;;;21.60;61.90;;;;;;5072065;28;20309;-67
2022/10/25 08:50:21;;;;;;;;;;;21.60;62.10;;;;;;5068825;28;19939;-65
2022/10/25 08:52:55;;;;;;;;;;;21.60;62.10;;;;;;5068106;28;20478;-64
2022/10/25 08:55:25;;;;;;;;;;;21.60;62.40;;;;;;5103503;27;19952;-65
2022/10/25 08:57:51;;;;;;;;;;;21.60;62.50;;;;;;5103093;27;19966;-65
2022/10/25 09:00:19;;;;;;;;;;;21.50;62.50;;;;;;5100490;27;19932;-67
2022/10/25 09:05:50;;;;;;;;;;;21.50;63.00;;;;;;5100152;27;1886393;-69
2022/10/25 09:16:27;;;;;;;;;;;21.60;63.20;;;;;;5047900;28;19920;-68
2022/10/25 09:18:54;;;;;;;;;;;21.50;63.10;;;;;;5057959;28;19962;-69
2022/10/25 09:21:40;;;;;;;;;;;21.50;63.30;;;;;;5055301;28;19925;-66
2022/10/25 09:24:24;;;;;;;;;;;21.50;63.30;;;;;;5074007;28;20867;-65
2022/10/25 09:27:02;;;;;;;;;;;21.50;63.30;;;;;;5055558;28;19928;-66
2022/10/25 09:29:31;;;;;;;;;;;21.50;63.50;;;;;;5056107;28;20543;-71
2022/10/25 09:31:58;;;;;;;;;;;21.50;63.60;;;;;;5056274;28;20020;-68
2022/10/25 09:34:26;;;;;;;;;;;21.40;63.40;;;;;;5060227;28;20018;-69
2022/10/25 09:36:56;;;;;;;;;;;21.40;63.50;;;;;;5053705;28;19955;-67
2022/10/25 09:39:41;;;;;;;;;;;21.50;63.60;;;;;;5052345;28;20418;-67
2022/10/25 09:42:15;;;;;;;;;;;21.40;63.60;;;;;;5051087;28;20021;-67
2022/10/25 09:44:42;;;;;;;;;;;21.40;63.60;;;;;;5043369;28;19925;-67
2022/10/25 09:47:11;;;;;;;;;;;21.40;63.70;;;;;;5045047;28;19960;-72
2022/10/25 09:52:24;;;;;;;;;;;21.40;63.70;;;;;;5054351;28;19920;-65
2022/10/25 09:54:52;;;;;;;;;;;21.40;63.90;;;;;;5053777;28;19920;-66
2022/10/25 09:57:18;;;;;;;;;;;21.40;64.00;;;;;;5050444;28;20339;-65
2022/10/25 09:59:47;;;;;;;;;;;21.40;64.10;;;;;;5056429;28;19925;-66
2022/10/25 10:02:14;;;;;;;;;;;21.40;63.70;;;;;;5049244;28;20438;-66
2022/10/25 10:04:40;;;;;;;;;;;21.40;63.40;;;;;;5055698;28;20408;-67
2022/10/25 10:07:13;;;;;;;;;;;21.40;63.40;;;;;;5064542;28;19925;-64
2022/10/25 10:09:39;;;;;;;;;;;21.30;63.60;;;;;;5054065;28;20613;-66
2022/10/25 10:12:06;;;;;;;;;;;21.40;63.80;;;;;;5072763;28;19931;-66
2022/10/25 10:14:36;;;;;;;;;;;21.40;64.00;;;;;;5056407;28;19924;-68
2022/10/25 10:17:04;;;;;;;;;;;21.40;64.20;;;;;;5063635;28;19935;-67
2022/10/25 10:19:30;;;;;;;;;;;21.40;64.30;;;;;;5061611;28;20017;-67
2022/10/25 10:22:00;;;;;;;;;;;21.40;64.20;;;;;;5054985;28;19991;-67
2022/10/25 10:27:08;;;;;;;;;;;21.40;63.20;;;;;;5089607;27;19920;-68
2022/10/25 10:29:36;;;;;;;;;;;21.40;63.00;;;;;;5092780;28;19936;-66
2022/10/25 10:32:04;;;;;;;;;;;21.40;62.70;;;;;;5090103;28;19936;-67
2022/10/25 10:34:31;;;;;;;;;;;21.40;62.60;;;;;;5084423;28;19920;-71
2022/10/25 10:39:54;;;;;;;;;;;21.40;62.40;;;;;;5069060;28;19927;-66
2022/10/25 10:42:21;;;;;;;;;;;21.40;62.40;;;;;;5063023;28;20365;-67
2022/10/25 10:50:34;;;;;;;;;;;21.40;62.90;;;;;;5105036;27;19957;-64
2022/10/25 10:53:02;;;;;;;;;;;21.50;63.10;;;;;;5109577;28;20367;-65
2022/10/25 11:12:09;;;;;;;;;;;21.30;63.50;;;;;;5087660;27;19921;-65
2022/10/25 11:14:35;;;;;;;;;;;21.40;63.60;;;;;;5079546;28;19931;-63
2022/10/25 11:17:07;;;;;;;;;;;21.30;63.50;;;;;;5074693;28;19920;-65
2022/10/25 11:19:52;;;;;;;;;;;21.30;63.60;;;;;;5074901;28;19967;-66
2022/10/25 11:22:38;;;;;;;;;;;21.30;63.70;;;;;;5074497;28;19924;-66
2022/10/25 11:27:51;;;;;;;;;;;21.30;63.80;;;;;;5076675;27;19925;-65
2022/10/25 11:30:18;;;;;;;;;;;21.30;63.80;;;;;;5104434;28;19932;-67
2022/10/25 11:32:55;;;;;;;;;;;21.30;63.90;;;;;;5072334;28;19931;-66
2022/10/25 11:35:31;;;;;;;;;;;21.30;63.90;;;;;;5077635;28;19959;-70
2022/10/25 11:40:40;;;;;;;;;;;21.20;63.90;;;;;;5092980;27;1871717;-67
2022/10/25 11:43:25;;;;;;;;;;;21.20;64.00;;;;;;5148948;27;19930;-67
2022/10/25 11:46:11;;;;;;;;;;;21.20;64.00;;;;;;5150735;27;20662;-68
2022/10/25 11:48:45;;;;;;;;;;;21.20;64.00;;;;;;5150062;27;19944;-68
2022/10/25 11:54:13;;;;;;;;;;;21.20;64.00;;;;;;5052564;28;20407;-67
2022/10/25 11:56:44;;;;;;;;;;;21.20;64.00;;;;;;5052169;28;20749;-68
2022/10/25 11:59:29;;;;;;;;;;;21.20;64.00;;;;;;5048386;28;19931;-67
2022/10/25 12:07:20;;;;;;;;;;;21.20;64.00;;;;;;5101420;27;1859530;-69
2022/10/25 12:12:32;;;;;;;;;;;21.20;64.00;;;;;;5091143;27;1855231;-67
2022/10/25 12:14:58;;;;;;;;;;;21.20;64.10;;;;;;5127698;27;20389;-68
2022/10/25 12:17:25;;;;;;;;;;;21.30;64.10;;;;;;5126101;27;19933;-66
2022/10/25 12:19:53;;;;;;;;;;;21.30;64.20;;;;;;5133306;27;20062;-68
2022/10/25 12:22:22;;;;;;;;;;;21.30;64.20;;;;;;5129858;27;19957;-67
2022/10/25 12:24:58;;;;;;;;;;;21.30;64.20;;;;;;5130940;27;19929;-67
2022/10/25 12:27:24;;;;;;;;;;;21.30;64.20;;;;;;5126884;27;19919;-65
2022/10/25 12:29:53;;;;;;;;;;;21.30;64.20;;;;;;5150013;27;19954;-65
2022/10/25 12:32:20;;;;;;;;;;;21.30;64.30;;;;;;5132054;27;20459;-67
2022/10/25 12:34:48;;;;;;;;;;;21.30;64.20;;;;;;5145318;27;19976;-71
2022/10/25 12:37:18;;;;;;;;;;;21.30;64.10;;;;;;5123487;27;19974;-67
2022/10/25 12:39:44;;;;;;;;;;;21.30;64.00;;;;;;5149503;27;19930;-66
2022/10/25 12:42:29;;;;;;;;;;;21.30;64.20;;;;;;5124670;27;20201;-67
2022/10/25 12:50:41;;;;;;;;;;;21.40;64.20;;;;;;5103496;27;1865444;-67
2022/10/25 12:56:21;;;;;;;;;;;21.40;64.20;;;;;;5087837;27;1876026;-67
2022/10/25 12:59:06;;;;;;;;;;;21.40;64.30;;;;;;5104654;27;20026;-66
2022/10/25 13:07:07;;;;;;;;;;;21.40;64.30;;;;;;5111226;27;1850316;-66
2022/10/25 13:09:34;;;;;;;;;;;21.40;64.20;;;;;;5154982;27;19930;-64
2022/10/25 13:12:02;;;;;;;;;;;21.50;63.70;;;;;;5151190;27;19922;-65
2022/10/25 13:14:29;;;;;;;;;;;21.40;63.30;;;;;;5153456;27;19922;-69
2022/10/25 13:17:15;;;;;;;;;;;21.40;63.00;;;;;;5171165;27;20311;-65
2022/10/25 13:19:41;;;;;;;;;;;21.20;62.40;;;;;;5176139;27;19931;-66
2022/10/25 13:22:26;;;;;;;;;;;21.40;62.70;;;;;;5151172;27;20530;-66
2022/10/25 13:24:52;;;;;;;;;;;21.40;62.90;;;;;;5156980;27;19979;-67
2022/10/25 13:27:19;;;;;;;;;;;21.40;63.00;;;;;;5156206;27;19922;-69
2022/10/25 13:29:46;;;;;;;;;;;21.40;63.00;;;;;;5154081;27;19971;-68
2022/10/25 13:32:15;;;;;;;;;;;21.40;62.80;;;;;;5176549;27;19927;-68
2022/10/25 13:34:41;;;;;;;;;;;21.40;62.60;;;;;;5161159;27;19954;-67
2022/10/25 13:37:26;;;;;;;;;;;21.40;62.30;;;;;;5178333;27;19976;-68
2022/10/25 13:39:53;;;;;;;;;;;21.40;62.60;;;;;;5160558;27;19923;-67
2022/10/25 13:42:38;;;;;;;;;;;21.50;62.20;;;;;;5160457;27;19923;-67
2022/10/25 13:45:06;;;;;;;;;;;21.40;62.00;;;;;;5171300;27;20418;-71
2022/10/25 13:47:35;;;;;;;;;;;21.40;62.50;;;;;;5157280;27;19925;-67
2022/10/25 13:50:21;;;;;;;;;;;21.40;62.70;;;;;;5178240;27;19930;-69
2022/10/25 13:55:35;;;;;;;;;;;21.40;62.40;;;;;;5109759;27;1861807;-68
2022/10/25 13:58:01;;;;;;;;;;;21.40;62.30;;;;;;5145946;27;19944;-69
2022/10/25 14:00:29;;;;;;;;;;;21.40;62.30;;;;;;5145631;27;19962;-68
2022/10/25 14:16:52;;;;;;;;;;;21.30;62.40;;;;;;5080462;28;19962;-69
2022/10/25 14:19:21;;;;;;;;;;;21.30;62.70;;;;;;5067524;28;19920;-67
2022/10/25 14:21:48;;;;;;;;;;;21.30;62.50;;;;;;5066259;28;19935;-67
2022/10/25 14:24:15;;;;;;;;;;;21.30;62.80;;;;;;5062977;28;19921;-68
2022/10/25 14:27:00;;;;;;;;;;;22.20;63.50;;;;;;5059863;28;19928;-65
2022/10/25 14:29:27;;;;;;;;;;;21.30;63.00;;;;;;5065642;28;19944;-69
2022/10/25 14:31:53;;;;;;;;;;;21.30;63.70;;;;;;5067704;28;19920;-70
2022/10/25 14:34:19;;;;;;;;;;;21.30;63.20;;;;;;5062875;28;19921;-72
2022/10/25 14:36:47;;;;;;;;;;;21.30;63.20;;;;;;5057970;28;19933;-70
2022/10/25 14:39:14;;;;;;;;;;;21.40;63.20;;;;;;5061583;28;20008;-70
2022/10/25 14:41:48;;;;;;;;;;;21.30;63.20;;;;;;5060083;28;19921;-69
2022/10/25 14:47:01;;;;;;;;;;;21.30;63.30;;;;;;5103844;27;19950;-69
2022/10/25 14:49:26;;;;;;;;;;;21.40;63.30;;;;;;5088906;28;19921;-69
2022/10/25 14:51:54;;;;;;;;;;;21.30;63.30;;;;;;5083179;28;19927;-70
2022/10/25 14:54:25;;;;;;;;;;;21.30;63.30;;;;;;5108761;28;19920;-70
2022/10/25 14:56:53;;;;;;;;;;;21.20;63.30;;;;;;5084370;28;19971;-70
2022/10/25 14:59:39;;;;;;;;;;;21.30;63.30;;;;;;5083372;28;20010;-70
2022/10/25 15:02:13;;;;;;;;;;;21.20;63.40;;;;;;5080990;28;19964;-72
2022/10/25 15:04:40;;;;;;;;;;;21.20;63.30;;;;;;5082972;28;19975;-70
2022/10/25 15:07:06;;;;;;;;;;;21.20;63.30;;;;;;5082441;28;19927;-72
2022/10/25 15:09:32;;;;;;;;;;;21.20;63.40;;;;;;5109482;27;19963;-72
2022/10/25 15:12:06;;;;;;;;;;;21.20;63.30;;;;;;5085171;28;19928;-72
2022/10/25 15:14:32;;;;;;;;;;;21.20;63.40;;;;;;5085412;28;20007;-72
2022/10/25 15:17:02;;;;;;;;;;;21.20;63.50;;;;;;5093279;28;19950;-72
2022/10/25 15:19:28;;;;;;;;;;;21.10;63.40;;;;;;5095481;28;19974;-72
2022/10/25 15:22:03;;;;;;;;;;;21.10;63.40;;;;;;5104024;28;19924;-69
2022/10/25 15:24:41;;;;;;;;;;;21.10;63.50;;;;;;5085448;28;19921;-70
2022/10/25 15:27:22;;;;;;;;;;;21.20;63.50;;;;;;5085210;28;20407;-70
2022/10/25 15:29:48;;;;;;;;;;;21.10;63.40;;;;;;5087305;28;19999;-70
2022/10/25 15:32:16;;;;;;;;;;;21.10;63.50;;;;;;5084338;28;20042;-70
2022/10/25 15:34:43;;;;;;;;;;;21.10;63.50;;;;;;5076123;28;19995;-70
2022/10/25 15:37:11;;;;;;;;;;;21.10;63.60;;;;;;5087592;28;19920;-70
2022/10/25 15:39:36;;;;;;;;;;;21.10;63.60;;;;;;5086551;28;19920;-70
2022/10/25 15:42:02;;;;;;;;;;;21.10;63.60;;;;;;5120836;28;19927;-70
2022/10/25 15:44:28;;;;;;;;;;;20.50;63.40;;;;;;5086284;28;19927;-70
2022/10/25 15:46:53;;;;;;;;;;;21.00;63.60;;;;;;5119568;27;19936;-69
2022/10/25 15:49:19;;;;;;;;;;;21.00;63.70;;;;;;5120898;28;19960;-70
2022/10/25 15:51:44;;;;;;;;;;;21.00;63.80;;;;;;5120458;28;19963;-70
2022/10/25 15:54:15;;;;;;;;;;;21.00;63.70;;;;;;5088023;28;19927;-70
2022/10/25 15:56:40;;;;;;;;;;;21.00;63.90;;;;;;5116360;28;20442;-69
2022/10/25 15:59:06;;;;;;;;;;;21.10;64.00;;;;;;5106675;28;19920;-70
2022/10/25 16:01:31;;;;;;;;;;;21.00;64.00;;;;;;5074567;28;19927;-70
2022/10/25 16:03:57;;;;;;;;;;;20.90;63.90;;;;;;5073407;28;19924;-69
2022/10/25 16:06:23;;;;;;;;;;;20.90;64.70;;;;;;5073944;28;20384;-70
2022/10/25 16:08:49;;;;;;;;;;;20.90;63.90;;;;;;5106634;28;19972;-70
2022/10/25 16:11:16;;;;;;;;;;;20.90;63.90;;;;;;5073752;28;20015;-70